Blossom, Texas
Current Conditions -  °F | °C
As of 7:15 PM on Thursday 18 Dec 2014 (Local Time) from KPRX Reporting Station
Overcast Overcast  
Wind Chill: 41°   Ceiling: 500
Heat Index: 45°   Visibility: 7mi
Dew Point: 41°   Wind: 7mph
Humidity: 87%   Direction: 30°NNE
Pressure: 30.19"   Gusts: NA
Location:  33.66°N, 95.39°W
Report Text: KPRX 190115Z 03006KT 7SM OVC005 07/05 A3019 RMK AO1
Loading
Personal Weather Stations






























Interactive Weather Map New forecast layout! Learn more

10-Day Weather Forecast

Advertisements
Track Severe Weather on mobile